ALK119 VCBI-VRMG
Flight info
| Callsign | ALK119 |
|---|---|
| Flight time | 1h 42m |
| Altitude | 38000 |
| Route | LALUM DCT PADLA G454 DUKET |
| Aircraft | A20N/M-SDE2E3FGHIRWXY/LB1 |
Departure
| Time | 2026-04-26 17:14 |
|---|---|
| Airport | Bandaranaike International Colombo Airport (VCBI) |
Arrival
| Time | 2026-04-26 18:56 |
|---|---|
| Airport | Gan International Airport (VRMG) |
| Time | Latitude | Longitude | Altitude | Speed | Heading |
|---|---|---|---|---|---|
| 2026-04-26 16:55 | 7.17615 | 79.88567 | 30 ft | 0 kts | 217° |
| 2026-04-26 16:56 | 7.17617 | 79.88569 | 30 ft | 3 kts | 217° |
| 2026-04-26 16:56 | 7.17632 | 79.88581 | 30 ft | 3 kts | 217° |
| 2026-04-26 16:57 | 7.17646 | 79.88591 | 30 ft | 2 kts | 217° |
| 2026-04-26 16:57 | 7.17653 | 79.88597 | 30 ft | 2 kts | 232° |
| 2026-04-26 16:57 | 7.17615 | 79.88567 | 30 ft | 0 kts | 217° |
| 2026-04-26 17:02 | 7.17618 | 79.88570 | 30 ft | 3 kts | 217° |
| 2026-04-26 17:03 | 7.17633 | 79.88582 | 30 ft | 3 kts | 217° |
| 2026-04-26 17:03 | 7.17648 | 79.88593 | 30 ft | 3 kts | 217° |
| 2026-04-26 17:03 | 7.17663 | 79.88604 | 30 ft | 3 kts | 217° |
| 2026-04-26 17:03 | 7.17678 | 79.88616 | 30 ft | 3 kts | 217° |
| 2026-04-26 17:04 | 7.17691 | 79.88627 | 30 ft | 3 kts | 243° |
| 2026-04-26 17:04 | 7.17695 | 79.88645 | 30 ft | 3 kts | 282° |
| 2026-04-26 17:04 | 7.17691 | 79.88655 | 30 ft | 0 kts | 306° |
| 2026-04-26 17:07 | 7.17692 | 79.88654 | 33 ft | 1 kts | 306° |
| 2026-04-26 17:08 | 7.17711 | 79.88627 | 30 ft | 8 kts | 307° |
| 2026-04-26 17:08 | 7.17753 | 79.88574 | 30 ft | 10 kts | 308° |
| 2026-04-26 17:08 | 7.17797 | 79.88517 | 30 ft | 10 kts | 307° |
| 2026-04-26 17:08 | 7.17842 | 79.88457 | 30 ft | 11 kts | 309° |
| 2026-04-26 17:09 | 7.17917 | 79.88451 | 32 ft | 12 kts | 31° |
| 2026-04-26 17:09 | 7.17963 | 79.88484 | 31 ft | 12 kts | 37° |
| 2026-04-26 17:09 | 7.18057 | 79.88557 | 30 ft | 13 kts | 37° |
| 2026-04-26 17:09 | 7.18133 | 79.88613 | 30 ft | 14 kts | 35° |
| 2026-04-26 17:10 | 7.18213 | 79.88671 | 30 ft | 14 kts | 37° |
| 2026-04-26 17:10 | 7.18293 | 79.88735 | 30 ft | 15 kts | 37° |
| 2026-04-26 17:10 | 7.18377 | 79.88799 | 30 ft | 16 kts | 37° |
| 2026-04-26 17:10 | 7.18464 | 79.88867 | 31 ft | 16 kts | 36° |
| 2026-04-26 17:11 | 7.18559 | 79.88940 | 31 ft | 20 kts | 38° |
| 2026-04-26 17:11 | 7.18681 | 79.89033 | 31 ft | 23 kts | 37° |
| 2026-04-26 17:11 | 7.18813 | 79.89133 | 31 ft | 24 kts | 36° |
| 2026-04-26 17:11 | 7.18916 | 79.89212 | 30 ft | 17 kts | 36° |
| 2026-04-26 17:12 | 7.19114 | 79.89364 | 30 ft | 18 kts | 38° |
| 2026-04-26 17:12 | 7.19210 | 79.89399 | 30 ft | 15 kts | 332° |
| 2026-04-26 17:13 | 7.19266 | 79.89257 | 30 ft | 14 kts | 221° |
| 2026-04-26 17:13 | 7.19015 | 79.89063 | 32 ft | 81 kts | 217° |
| 2026-04-26 17:13 | 7.17503 | 79.87915 | 375 ft | 161 kts | 216° |
| 2026-04-26 17:14 | 7.16612 | 79.87245 | 990 ft | 158 kts | 216° |
| 2026-04-26 17:14 | 7.14776 | 79.85922 | 2130 ft | 186 kts | 213° |
| 2026-04-26 17:14 | 7.13728 | 79.85002 | 2581 ft | 212 kts | 228° |
| 2026-04-26 17:15 | 7.11859 | 79.82500 | 3830 ft | 238 kts | 232° |
| 2026-04-26 17:15 | 7.10835 | 79.81141 | 4477 ft | 249 kts | 231° |
| 2026-04-26 17:15 | 7.09765 | 79.79744 | 5186 ft | 255 kts | 231° |
| 2026-04-26 17:16 | 7.08663 | 79.78322 | 5898 ft | 260 kts | 231° |
| 2026-04-26 17:16 | 7.07535 | 79.76877 | 6604 ft | 265 kts | 231° |
| 2026-04-26 17:16 | 7.06390 | 79.75414 | 7308 ft | 267 kts | 231° |
| 2026-04-26 17:16 | 7.05235 | 79.73941 | 8055 ft | 269 kts | 231° |
| 2026-04-26 17:17 | 7.04074 | 79.72461 | 8794 ft | 271 kts | 231° |
| 2026-04-26 17:17 | 7.02900 | 79.70963 | 9516 ft | 274 kts | 231° |
| 2026-04-26 17:17 | 7.01716 | 79.69451 | 10177 ft | 276 kts | 231° |
| 2026-04-26 17:17 | 7.00520 | 79.67924 | 10802 ft | 280 kts | 231° |
| 2026-04-26 17:18 | 6.99308 | 79.66375 | 11435 ft | 283 kts | 231° |
| 2026-04-26 17:18 | 6.98085 | 79.64814 | 12102 ft | 285 kts | 231° |
| 2026-04-26 17:18 | 6.96850 | 79.63236 | 12787 ft | 289 kts | 231° |
| 2026-04-26 17:18 | 6.95614 | 79.61657 | 13473 ft | 292 kts | 231° |
| 2026-04-26 17:19 | 6.93076 | 79.58418 | 14710 ft | 298 kts | 230° |
| 2026-04-26 17:19 | 6.91787 | 79.56772 | 15317 ft | 300 kts | 230° |
| 2026-04-26 17:19 | 6.90487 | 79.55112 | 15907 ft | 304 kts | 230° |
| 2026-04-26 17:20 | 6.89173 | 79.53436 | 16507 ft | 306 kts | 230° |
| 2026-04-26 17:20 | 6.88728 | 79.52868 | 16714 ft | 307 kts | 230° |
| 2026-04-26 17:20 | 6.86512 | 79.50039 | 17704 ft | 312 kts | 230° |
| 2026-04-26 17:20 | 6.85160 | 79.48314 | 18258 ft | 315 kts | 230° |
| 2026-04-26 17:21 | 6.83799 | 79.46578 | 18747 ft | 318 kts | 230° |
| 2026-04-26 17:21 | 6.82427 | 79.44827 | 19253 ft | 320 kts | 230° |
| 2026-04-26 17:21 | 6.81043 | 79.43063 | 19761 ft | 322 kts | 230° |
| 2026-04-26 17:21 | 6.79650 | 79.41286 | 20275 ft | 324 kts | 230° |
| 2026-04-26 17:22 | 6.78250 | 79.39502 | 20791 ft | 327 kts | 230° |
| 2026-04-26 17:22 | 6.76833 | 79.37698 | 21300 ft | 329 kts | 230° |
| 2026-04-26 17:22 | 6.75413 | 79.35886 | 21794 ft | 331 kts | 230° |
| 2026-04-26 17:22 | 6.73981 | 79.34059 | 22264 ft | 335 kts | 230° |
| 2026-04-26 17:23 | 6.72504 | 79.32178 | 22443 ft | 351 kts | 230° |
| 2026-04-26 17:23 | 6.70956 | 79.30210 | 22677 ft | 366 kts | 230° |
| 2026-04-26 17:23 | 6.69352 | 79.28170 | 22929 ft | 379 kts | 230° |
| 2026-04-26 17:23 | 6.67689 | 79.26057 | 23170 ft | 391 kts | 230° |
| 2026-04-26 17:24 | 6.65976 | 79.23878 | 23430 ft | 402 kts | 230° |
| 2026-04-26 17:24 | 6.64224 | 79.21649 | 23770 ft | 408 kts | 230° |
| 2026-04-26 17:24 | 6.62455 | 79.19398 | 24176 ft | 412 kts | 230° |
| 2026-04-26 17:24 | 6.60675 | 79.17132 | 24621 ft | 414 kts | 230° |
| 2026-04-26 17:25 | 6.58884 | 79.14853 | 25072 ft | 416 kts | 230° |
| 2026-04-26 17:25 | 6.57083 | 79.12559 | 25501 ft | 419 kts | 230° |
| 2026-04-26 17:25 | 6.55295 | 79.10280 | 25917 ft | 421 kts | 230° |
| 2026-04-26 17:25 | 6.53476 | 79.07963 | 26326 ft | 424 kts | 230° |
| 2026-04-26 17:26 | 6.51646 | 79.05633 | 26735 ft | 426 kts | 230° |
| 2026-04-26 17:26 | 6.49803 | 79.03287 | 27130 ft | 428 kts | 230° |
| 2026-04-26 17:26 | 6.47954 | 79.00932 | 27520 ft | 430 kts | 230° |
| 2026-04-26 17:26 | 6.46089 | 78.98560 | 27901 ft | 433 kts | 230° |
| 2026-04-26 17:27 | 6.44226 | 78.96189 | 28268 ft | 435 kts | 230° |
| 2026-04-26 17:27 | 6.42958 | 78.94577 | 28511 ft | 437 kts | 230° |
| 2026-04-26 17:27 | 6.41072 | 78.92179 | 28863 ft | 439 kts | 230° |
| 2026-04-26 17:27 | 6.39171 | 78.89761 | 29220 ft | 441 kts | 230° |
| 2026-04-26 17:28 | 6.36617 | 78.86513 | 29696 ft | 444 kts | 230° |
| 2026-04-26 17:28 | 6.35346 | 78.84898 | 29919 ft | 446 kts | 230° |
| 2026-04-26 17:28 | 6.33394 | 78.82417 | 30215 ft | 448 kts | 230° |
| 2026-04-26 17:28 | 6.31457 | 78.79954 | 30505 ft | 449 kts | 230° |
| 2026-04-26 17:29 | 6.29542 | 78.77520 | 30792 ft | 451 kts | 230° |
| 2026-04-26 17:29 | 6.28227 | 78.75849 | 30986 ft | 452 kts | 230° |
| 2026-04-26 17:29 | 6.25635 | 78.72555 | 31388 ft | 454 kts | 230° |
| 2026-04-26 17:29 | 6.23680 | 78.70069 | 31794 ft | 452 kts | 230° |
| 2026-04-26 17:30 | 6.21734 | 78.67597 | 32208 ft | 450 kts | 230° |
| 2026-04-26 17:30 | 6.19795 | 78.65132 | 32603 ft | 449 kts | 230° |
| 2026-04-26 17:30 | 6.17859 | 78.62673 | 32986 ft | 448 kts | 229° |
| 2026-04-26 17:30 | 6.15880 | 78.60267 | 33361 ft | 446 kts | 225° |
| 2026-04-26 17:31 | 6.13617 | 78.58162 | 33736 ft | 442 kts | 216° |
| 2026-04-26 17:31 | 6.11046 | 78.56488 | 34050 ft | 440 kts | 206° |
| 2026-04-26 17:31 | 6.08307 | 78.55138 | 34353 ft | 438 kts | 203° |
| 2026-04-26 17:31 | 6.05522 | 78.53898 | 34669 ft | 437 kts | 201° |
| 2026-04-26 17:32 | 6.02726 | 78.52723 | 34993 ft | 435 kts | 201° |
| 2026-04-26 17:32 | 5.99925 | 78.51574 | 35302 ft | 434 kts | 201° |
| 2026-04-26 17:32 | 5.97133 | 78.50433 | 35602 ft | 433 kts | 201° |
| 2026-04-26 17:32 | 5.94351 | 78.49289 | 35892 ft | 432 kts | 201° |
| 2026-04-26 17:33 | 5.91576 | 78.48139 | 36177 ft | 431 kts | 201° |
| 2026-04-26 17:33 | 5.88811 | 78.46985 | 36444 ft | 430 kts | 201° |
| 2026-04-26 17:33 | 5.86047 | 78.45827 | 36714 ft | 430 kts | 201° |
| 2026-04-26 17:34 | 5.80547 | 78.43522 | 37258 ft | 428 kts | 201° |
| 2026-04-26 17:34 | 5.77803 | 78.42374 | 37522 ft | 427 kts | 201° |
| 2026-04-26 17:34 | 5.75065 | 78.41224 | 37780 ft | 426 kts | 201° |
| 2026-04-26 17:35 | 5.69593 | 78.38921 | 37885 ft | 426 kts | 201° |
| 2026-04-26 17:35 | 5.64143 | 78.36629 | 37880 ft | 425 kts | 201° |
| 2026-04-26 17:36 | 5.58687 | 78.34338 | 37881 ft | 425 kts | 201° |
| 2026-04-26 17:36 | 5.53237 | 78.32051 | 37882 ft | 425 kts | 201° |
| 2026-04-26 17:37 | 5.47778 | 78.29762 | 37885 ft | 425 kts | 201° |
| 2026-04-26 17:37 | 5.42324 | 78.27475 | 37885 ft | 425 kts | 201° |
| 2026-04-26 17:38 | 5.34176 | 78.24059 | 37887 ft | 425 kts | 201° |
| 2026-04-26 17:38 | 5.28746 | 78.21783 | 37884 ft | 420 kts | 201° |
| 2026-04-26 17:39 | 5.23368 | 78.19528 | 37882 ft | 418 kts | 201° |
| 2026-04-26 17:39 | 5.17996 | 78.17278 | 37887 ft | 418 kts | 201° |
| 2026-04-26 17:40 | 5.13529 | 78.15406 | 37886 ft | 419 kts | 201° |
| 2026-04-26 17:40 | 5.07247 | 78.12775 | 37887 ft | 419 kts | 201° |
| 2026-04-26 17:41 | 5.01872 | 78.10524 | 37888 ft | 419 kts | 201° |
| 2026-04-26 17:41 | 4.96492 | 78.08268 | 37891 ft | 419 kts | 201° |
| 2026-04-26 17:42 | 4.91115 | 78.06015 | 37882 ft | 419 kts | 201° |
| 2026-04-26 17:42 | 4.85734 | 78.03763 | 37892 ft | 419 kts | 201° |
| 2026-04-26 17:43 | 4.80349 | 78.01510 | 37883 ft | 419 kts | 200° |
| 2026-04-26 17:43 | 4.75236 | 77.98697 | 37892 ft | 422 kts | 213° |
| 2026-04-26 17:44 | 4.70517 | 77.95194 | 37889 ft | 423 kts | 215° |
| 2026-04-26 17:44 | 4.65883 | 77.91563 | 37886 ft | 423 kts | 216° |
| 2026-04-26 17:45 | 4.61256 | 77.87919 | 37892 ft | 423 kts | 216° |
| 2026-04-26 17:45 | 4.56620 | 77.84290 | 37886 ft | 423 kts | 215° |
| 2026-04-26 17:46 | 4.51981 | 77.80674 | 37887 ft | 423 kts | 215° |
| 2026-04-26 17:46 | 4.47335 | 77.77056 | 37889 ft | 423 kts | 215° |
| 2026-04-26 17:47 | 4.43472 | 77.74048 | 37888 ft | 423 kts | 215° |
| 2026-04-26 17:47 | 4.38041 | 77.69819 | 37885 ft | 423 kts | 215° |
| 2026-04-26 17:48 | 4.33392 | 77.66199 | 37893 ft | 423 kts | 215° |
| 2026-04-26 17:48 | 4.28746 | 77.62582 | 37884 ft | 423 kts | 215° |
| 2026-04-26 17:49 | 4.24099 | 77.58964 | 37892 ft | 423 kts | 215° |
| 2026-04-26 17:49 | 4.19448 | 77.55344 | 37889 ft | 423 kts | 215° |
| 2026-04-26 17:50 | 4.14801 | 77.51728 | 37890 ft | 423 kts | 215° |
| 2026-04-26 17:50 | 4.10152 | 77.48110 | 37894 ft | 423 kts | 215° |
| 2026-04-26 17:51 | 4.05503 | 77.44494 | 37896 ft | 423 kts | 214° |
| 2026-04-26 17:51 | 4.00857 | 77.40881 | 37886 ft | 423 kts | 214° |
| 2026-04-26 17:52 | 3.96208 | 77.37265 | 37884 ft | 423 kts | 214° |
| 2026-04-26 17:52 | 3.91591 | 77.33675 | 37899 ft | 423 kts | 214° |
| 2026-04-26 17:53 | 3.87063 | 77.29839 | 37895 ft | 424 kts | 218° |
| 2026-04-26 17:54 | 3.80582 | 77.23849 | 37893 ft | 425 kts | 219° |
| 2026-04-26 17:54 | 3.76237 | 77.19841 | 37897 ft | 425 kts | 219° |
| 2026-04-26 17:55 | 3.71877 | 77.15858 | 37893 ft | 424 kts | 218° |
| 2026-04-26 17:55 | 3.67506 | 77.11878 | 37898 ft | 425 kts | 218° |
| 2026-04-26 17:56 | 3.63129 | 77.07896 | 37891 ft | 425 kts | 218° |
| 2026-04-26 17:57 | 3.54374 | 76.99926 | 37895 ft | 425 kts | 218° |
| 2026-04-26 17:57 | 3.49995 | 76.95940 | 37890 ft | 425 kts | 218° |
| 2026-04-26 17:58 | 3.41233 | 76.87965 | 37898 ft | 426 kts | 218° |
| 2026-04-26 17:59 | 3.34661 | 76.81986 | 37896 ft | 426 kts | 218° |
| 2026-04-26 17:59 | 3.30279 | 76.77999 | 37892 ft | 426 kts | 218° |
| 2026-04-26 18:00 | 3.25894 | 76.74011 | 37897 ft | 426 kts | 218° |
| 2026-04-26 18:00 | 3.21509 | 76.70023 | 37895 ft | 426 kts | 218° |
| 2026-04-26 18:01 | 3.17125 | 76.66035 | 37898 ft | 426 kts | 218° |
| 2026-04-26 18:01 | 3.12739 | 76.62048 | 37891 ft | 426 kts | 218° |
| 2026-04-26 18:02 | 3.09806 | 76.59381 | 37898 ft | 426 kts | 218° |
| 2026-04-26 18:02 | 3.03969 | 76.54075 | 37902 ft | 426 kts | 218° |
| 2026-04-26 18:03 | 2.99584 | 76.50089 | 37893 ft | 426 kts | 218° |
| 2026-04-26 18:03 | 2.95199 | 76.46104 | 37894 ft | 426 kts | 218° |
| 2026-04-26 18:04 | 2.90811 | 76.42116 | 37899 ft | 426 kts | 218° |
| 2026-04-26 18:05 | 2.84232 | 76.36138 | 37893 ft | 426 kts | 218° |
| 2026-04-26 18:05 | 2.79874 | 76.32179 | 37891 ft | 426 kts | 218° |
| 2026-04-26 18:06 | 2.75490 | 76.28197 | 37895 ft | 426 kts | 218° |
| 2026-04-26 18:06 | 2.71106 | 76.24214 | 37898 ft | 426 kts | 218° |
| 2026-04-26 18:07 | 2.66723 | 76.20233 | 37898 ft | 425 kts | 218° |
| 2026-04-26 18:07 | 2.62343 | 76.16255 | 37896 ft | 425 kts | 218° |
| 2026-04-26 18:08 | 2.57970 | 76.12284 | 37893 ft | 425 kts | 218° |
| 2026-04-26 18:08 | 2.53599 | 76.08316 | 37897 ft | 424 kts | 218° |
| 2026-04-26 18:09 | 2.49230 | 76.04349 | 37896 ft | 424 kts | 218° |
| 2026-04-26 18:09 | 2.44862 | 76.00384 | 37896 ft | 424 kts | 218° |
| 2026-04-26 18:10 | 2.40497 | 75.96422 | 37891 ft | 424 kts | 218° |
| 2026-04-26 18:10 | 2.36136 | 75.92464 | 37895 ft | 423 kts | 218° |
| 2026-04-26 18:11 | 2.31775 | 75.88506 | 37891 ft | 423 kts | 218° |
| 2026-04-26 18:11 | 2.27420 | 75.84555 | 37892 ft | 423 kts | 218° |
| 2026-04-26 18:12 | 2.23066 | 75.80604 | 37895 ft | 423 kts | 218° |
| 2026-04-26 18:12 | 2.18715 | 75.76656 | 37890 ft | 422 kts | 218° |
| 2026-04-26 18:13 | 2.14364 | 75.72709 | 37894 ft | 422 kts | 218° |
| 2026-04-26 18:13 | 2.10042 | 75.68788 | 37893 ft | 422 kts | 218° |
| 2026-04-26 18:14 | 2.05692 | 75.64842 | 37889 ft | 422 kts | 218° |
| 2026-04-26 18:14 | 2.02046 | 75.61540 | 37896 ft | 422 kts | 218° |
| 2026-04-26 18:15 | 1.97634 | 75.57677 | 37894 ft | 421 kts | 217° |
| 2026-04-26 18:15 | 1.93190 | 75.53860 | 37896 ft | 421 kts | 217° |
| 2026-04-26 18:16 | 1.88745 | 75.50043 | 37891 ft | 421 kts | 217° |
| 2026-04-26 18:16 | 1.82084 | 75.44300 | 37891 ft | 422 kts | 217° |
| 2026-04-26 18:17 | 1.77647 | 75.40470 | 37893 ft | 421 kts | 217° |
| 2026-04-26 18:17 | 1.73208 | 75.36639 | 37889 ft | 421 kts | 217° |
| 2026-04-26 18:18 | 1.68771 | 75.32810 | 37891 ft | 421 kts | 217° |
| 2026-04-26 18:18 | 1.64330 | 75.28978 | 37892 ft | 421 kts | 217° |
| 2026-04-26 18:19 | 1.59897 | 75.25153 | 37889 ft | 421 kts | 217° |
| 2026-04-26 18:19 | 1.55462 | 75.21327 | 37890 ft | 421 kts | 217° |
| 2026-04-26 18:20 | 1.51028 | 75.17502 | 37893 ft | 421 kts | 217° |
| 2026-04-26 18:20 | 1.47346 | 75.14326 | 37885 ft | 421 kts | 217° |
| 2026-04-26 18:21 | 1.42196 | 75.09883 | 37884 ft | 421 kts | 216° |
| 2026-04-26 18:21 | 1.37767 | 75.06063 | 37881 ft | 420 kts | 216° |
| 2026-04-26 18:22 | 1.33340 | 75.02244 | 37888 ft | 420 kts | 216° |
| 2026-04-26 18:22 | 1.28914 | 74.98428 | 37888 ft | 420 kts | 216° |
| 2026-04-26 18:23 | 1.24490 | 74.94613 | 37891 ft | 420 kts | 216° |
| 2026-04-26 18:23 | 1.20069 | 74.90801 | 37885 ft | 420 kts | 216° |
| 2026-04-26 18:24 | 1.15652 | 74.86993 | 37892 ft | 419 kts | 216° |
| 2026-04-26 18:24 | 1.11233 | 74.83182 | 37890 ft | 419 kts | 216° |
| 2026-04-26 18:25 | 1.06818 | 74.79376 | 37885 ft | 419 kts | 216° |
| 2026-04-26 18:25 | 1.02409 | 74.75573 | 37889 ft | 419 kts | 217° |
| 2026-04-26 18:26 | 0.97986 | 74.71760 | 37892 ft | 421 kts | 217° |
| 2026-04-26 18:26 | 0.93540 | 74.67928 | 37889 ft | 422 kts | 217° |
| 2026-04-26 18:27 | 0.89093 | 74.64092 | 37885 ft | 422 kts | 217° |
| 2026-04-26 18:27 | 0.84648 | 74.60260 | 37872 ft | 422 kts | 217° |
| 2026-04-26 18:28 | 0.82437 | 74.58353 | 37438 ft | 419 kts | 217° |
| 2026-04-26 18:28 | 0.80230 | 74.56451 | 36845 ft | 419 kts | 217° |
| 2026-04-26 18:28 | 0.78015 | 74.54543 | 36203 ft | 421 kts | 217° |
| 2026-04-26 18:28 | 0.75793 | 74.52629 | 35558 ft | 423 kts | 217° |
| 2026-04-26 18:29 | 0.73562 | 74.50709 | 34908 ft | 425 kts | 217° |
| 2026-04-26 18:29 | 0.71318 | 74.48775 | 34368 ft | 426 kts | 217° |
| 2026-04-26 18:29 | 0.69060 | 74.46830 | 34143 ft | 432 kts | 217° |
| 2026-04-26 18:29 | 0.66782 | 74.44869 | 33630 ft | 433 kts | 217° |
| 2026-04-26 18:30 | 0.64504 | 74.42906 | 33026 ft | 432 kts | 217° |
| 2026-04-26 18:30 | 0.62239 | 74.40953 | 32476 ft | 429 kts | 217° |
| 2026-04-26 18:30 | 0.59985 | 74.39009 | 31945 ft | 427 kts | 218° |
| 2026-04-26 18:30 | 0.57747 | 74.37078 | 31418 ft | 425 kts | 218° |
| 2026-04-26 18:31 | 0.55514 | 74.35152 | 30902 ft | 422 kts | 218° |
| 2026-04-26 18:31 | 0.53295 | 74.33238 | 30425 ft | 420 kts | 218° |
| 2026-04-26 18:31 | 0.51106 | 74.31349 | 30169 ft | 411 kts | 218° |
| 2026-04-26 18:31 | 0.48986 | 74.29516 | 29907 ft | 396 kts | 218° |
| 2026-04-26 18:32 | 0.46945 | 74.27750 | 29594 ft | 381 kts | 218° |
| 2026-04-26 18:32 | 0.44968 | 74.26040 | 29039 ft | 374 kts | 218° |
| 2026-04-26 18:32 | 0.43010 | 74.24351 | 28499 ft | 368 kts | 218° |
| 2026-04-26 18:32 | 0.41093 | 74.22698 | 28043 ft | 360 kts | 218° |
| 2026-04-26 18:33 | 0.39196 | 74.21066 | 27224 ft | 362 kts | 217° |
| 2026-04-26 18:33 | 0.37262 | 74.19425 | 26141 ft | 369 kts | 217° |
| 2026-04-26 18:33 | 0.35268 | 74.17767 | 25094 ft | 375 kts | 217° |
| 2026-04-26 18:33 | 0.33242 | 74.16107 | 24154 ft | 378 kts | 218° |
| 2026-04-26 18:34 | 0.31221 | 74.14412 | 23128 ft | 381 kts | 219° |
| 2026-04-26 18:34 | 0.29228 | 74.12696 | 21869 ft | 386 kts | 220° |
| 2026-04-26 18:34 | 0.27210 | 74.10915 | 20647 ft | 388 kts | 221° |
| 2026-04-26 18:34 | 0.25202 | 74.09104 | 19428 ft | 390 kts | 222° |
| 2026-04-26 18:35 | 0.23199 | 74.07275 | 18287 ft | 392 kts | 221° |
| 2026-04-26 18:35 | 0.21173 | 74.05490 | 17624 ft | 380 kts | 221° |
| 2026-04-26 18:35 | 0.19221 | 74.03811 | 17255 ft | 361 kts | 220° |
| 2026-04-26 18:35 | 0.17361 | 74.02225 | 16912 ft | 344 kts | 220° |
| 2026-04-26 18:36 | 0.15545 | 74.00676 | 16341 ft | 343 kts | 220° |
| 2026-04-26 18:36 | 0.13722 | 73.99141 | 15851 ft | 342 kts | 219° |
| 2026-04-26 18:36 | 0.11901 | 73.97625 | 15386 ft | 339 kts | 219° |
| 2026-04-26 18:36 | 0.10100 | 73.96118 | 14941 ft | 336 kts | 219° |
| 2026-04-26 18:37 | 0.08323 | 73.94614 | 14500 ft | 334 kts | 221° |
| 2026-04-26 18:37 | 0.06581 | 73.93095 | 14069 ft | 331 kts | 221° |
| 2026-04-26 18:37 | 0.04862 | 73.91581 | 13625 ft | 329 kts | 221° |
| 2026-04-26 18:37 | 0.03154 | 73.90078 | 13144 ft | 326 kts | 221° |
| 2026-04-26 18:38 | 0.01454 | 73.88592 | 12677 ft | 323 kts | 221° |
| 2026-04-26 18:38 | -0.00234 | 73.87125 | 12200 ft | 321 kts | 221° |
| 2026-04-26 18:38 | -0.01913 | 73.85671 | 11757 ft | 318 kts | 221° |
| 2026-04-26 18:38 | -0.03577 | 73.84234 | 11322 ft | 315 kts | 221° |
| 2026-04-26 18:39 | -0.05223 | 73.82810 | 10878 ft | 312 kts | 221° |
| 2026-04-26 18:39 | -0.06858 | 73.81397 | 10521 ft | 309 kts | 221° |
| 2026-04-26 18:39 | -0.08480 | 73.79996 | 10291 ft | 308 kts | 221° |
| 2026-04-26 18:39 | -0.10103 | 73.78596 | 10060 ft | 307 kts | 221° |
| 2026-04-26 18:40 | -0.11717 | 73.77205 | 9831 ft | 304 kts | 221° |
| 2026-04-26 18:40 | -0.13301 | 73.75841 | 9578 ft | 297 kts | 221° |
| 2026-04-26 18:40 | -0.14858 | 73.74501 | 9331 ft | 294 kts | 221° |
| 2026-04-26 18:40 | -0.16407 | 73.73167 | 9079 ft | 294 kts | 221° |
| 2026-04-26 18:41 | -0.17952 | 73.71836 | 8832 ft | 293 kts | 221° |
| 2026-04-26 18:41 | -0.19490 | 73.70510 | 8586 ft | 291 kts | 221° |
| 2026-04-26 18:41 | -0.21019 | 73.69192 | 8346 ft | 290 kts | 221° |
| 2026-04-26 18:41 | -0.22544 | 73.67877 | 8099 ft | 289 kts | 221° |
| 2026-04-26 18:42 | -0.24040 | 73.66589 | 7865 ft | 288 kts | 221° |
| 2026-04-26 18:42 | -0.25576 | 73.65266 | 7623 ft | 287 kts | 221° |
| 2026-04-26 18:42 | -0.27083 | 73.63967 | 7384 ft | 285 kts | 221° |
| 2026-04-26 18:42 | -0.28562 | 73.62692 | 7144 ft | 277 kts | 221° |
| 2026-04-26 18:43 | -0.30000 | 73.61452 | 6961 ft | 271 kts | 221° |
| 2026-04-26 18:43 | -0.31419 | 73.60228 | 6732 ft | 266 kts | 222° |
| 2026-04-26 18:43 | -0.32791 | 73.59044 | 6477 ft | 254 kts | 222° |
| 2026-04-26 18:43 | -0.34085 | 73.57926 | 6250 ft | 247 kts | 222° |
| 2026-04-26 18:44 | -0.35385 | 73.56803 | 6017 ft | 247 kts | 222° |
| 2026-04-26 18:44 | -0.36678 | 73.55685 | 5768 ft | 245 kts | 222° |
| 2026-04-26 18:44 | -0.37963 | 73.54575 | 5519 ft | 242 kts | 222° |
| 2026-04-26 18:44 | -0.39226 | 73.53486 | 5275 ft | 237 kts | 222° |
| 2026-04-26 18:45 | -0.40464 | 73.52418 | 5053 ft | 233 kts | 222° |
| 2026-04-26 18:45 | -0.41663 | 73.51386 | 4867 ft | 223 kts | 222° |
| 2026-04-26 18:45 | -0.42834 | 73.50375 | 4752 ft | 222 kts | 222° |
| 2026-04-26 18:45 | -0.44006 | 73.49363 | 4633 ft | 225 kts | 222° |
| 2026-04-26 18:46 | -0.45199 | 73.48334 | 4512 ft | 227 kts | 222° |
| 2026-04-26 18:46 | -0.46394 | 73.47303 | 4400 ft | 227 kts | 222° |
| 2026-04-26 18:46 | -0.47575 | 73.46286 | 4260 ft | 219 kts | 222° |
| 2026-04-26 18:46 | -0.48718 | 73.45302 | 4097 ft | 216 kts | 222° |
| 2026-04-26 18:47 | -0.49845 | 73.44330 | 3768 ft | 213 kts | 222° |
| 2026-04-26 18:47 | -0.50967 | 73.43362 | 3565 ft | 214 kts | 223° |
| 2026-04-26 18:47 | -0.52094 | 73.42389 | 3246 ft | 213 kts | 222° |
| 2026-04-26 18:47 | -0.53208 | 73.41429 | 2924 ft | 210 kts | 222° |
| 2026-04-26 18:48 | -0.54302 | 73.40485 | 2653 ft | 206 kts | 222° |
| 2026-04-26 18:48 | -0.55381 | 73.39556 | 2340 ft | 204 kts | 222° |
| 2026-04-26 18:48 | -0.56450 | 73.38634 | 2018 ft | 202 kts | 222° |
| 2026-04-26 18:48 | -0.57510 | 73.37720 | 1719 ft | 201 kts | 223° |
| 2026-04-26 18:49 | -0.58567 | 73.36807 | 1595 ft | 201 kts | 222° |
| 2026-04-26 18:49 | -0.59626 | 73.35894 | 1583 ft | 200 kts | 222° |
| 2026-04-26 18:49 | -0.60680 | 73.34985 | 1580 ft | 200 kts | 222° |
| 2026-04-26 18:49 | -0.61726 | 73.34084 | 1570 ft | 197 kts | 222° |
| 2026-04-26 18:50 | -0.62765 | 73.33254 | 1572 ft | 188 kts | 215° |
| 2026-04-26 18:50 | -0.63929 | 73.32675 | 1575 ft | 187 kts | 200° |
| 2026-04-26 18:50 | -0.65194 | 73.32350 | 1586 ft | 188 kts | 193° |
| 2026-04-26 18:50 | -0.66473 | 73.32117 | 1565 ft | 182 kts | 191° |
| 2026-04-26 18:51 | -0.67661 | 73.31926 | 1572 ft | 162 kts | 192° |
| 2026-04-26 18:51 | -0.68674 | 73.31756 | 1570 ft | 136 kts | 195° |
| 2026-04-26 18:51 | -0.69533 | 73.31470 | 1582 ft | 128 kts | 208° |
| 2026-04-26 18:51 | -0.70270 | 73.30982 | 1589 ft | 127 kts | 224° |
| 2026-04-26 18:52 | -0.70839 | 73.30310 | 1581 ft | 127 kts | 239° |
| 2026-04-26 18:52 | -0.71197 | 73.29506 | 1591 ft | 127 kts | 256° |
| 2026-04-26 18:52 | -0.71318 | 73.28631 | 1596 ft | 128 kts | 270° |
| 2026-04-26 18:52 | -0.71226 | 73.27748 | 1590 ft | 128 kts | 278° |
| 2026-04-26 18:53 | -0.71087 | 73.26868 | 1595 ft | 128 kts | 279° |
| 2026-04-26 18:53 | -0.70947 | 73.25990 | 1592 ft | 128 kts | 279° |
| 2026-04-26 18:53 | -0.70809 | 73.25113 | 1594 ft | 128 kts | 278° |
| 2026-04-26 18:53 | -0.70673 | 73.24243 | 1545 ft | 125 kts | 278° |
| 2026-04-26 18:54 | -0.70541 | 73.23399 | 1372 ft | 124 kts | 277° |
| 2026-04-26 18:54 | -0.70407 | 73.22538 | 1206 ft | 123 kts | 278° |
| 2026-04-26 18:54 | -0.70277 | 73.21706 | 1056 ft | 123 kts | 278° |
| 2026-04-26 18:54 | -0.70148 | 73.20864 | 890 ft | 122 kts | 279° |
| 2026-04-26 18:55 | -0.70018 | 73.20027 | 730 ft | 122 kts | 278° |
| 2026-04-26 18:55 | -0.69889 | 73.19188 | 569 ft | 122 kts | 279° |
| 2026-04-26 18:55 | -0.69759 | 73.18350 | 406 ft | 122 kts | 279° |
| 2026-04-26 18:55 | -0.69626 | 73.17508 | 271 ft | 122 kts | 281° |
| 2026-04-26 18:56 | -0.69493 | 73.16674 | 87 ft | 122 kts | 278° |
| 2026-04-26 18:56 | -0.69365 | 73.15871 | 18 ft | 104 kts | 278° |
| 2026-04-26 18:56 | -0.69299 | 73.15332 | 21 ft | 53 kts | 275° |
| 2026-04-26 18:56 | -0.69273 | 73.15206 | 23 ft | 3 kts | 9° |
| 2026-04-26 18:57 | -0.69274 | 73.15234 | 21 ft | 8 kts | 101° |
| 2026-04-26 18:57 | -0.69278 | 73.15254 | 22 ft | 9 kts | 100° |
| 2026-04-26 18:57 | -0.69296 | 73.15390 | 24 ft | 17 kts | 97° |
| 2026-04-26 18:57 | -0.69314 | 73.15510 | 22 ft | 18 kts | 96° |
| 2026-04-26 18:58 | -0.69267 | 73.15576 | 18 ft | 0 kts | 15° |
| 2026-04-26 18:58 | -0.69247 | 73.15581 | 19 ft | 6 kts | 13° |
| 2026-04-26 18:58 | -0.69184 | 73.15592 | 21 ft | 11 kts | 8° |
| 2026-04-26 18:59 | -0.69111 | 73.15614 | 20 ft | 11 kts | 43° |
| 2026-04-26 18:59 | -0.69099 | 73.15688 | 19 ft | 11 kts | 97° |
| 2026-04-26 18:59 | -0.69112 | 73.15769 | 19 ft | 12 kts | 102° |
| 2026-04-26 18:59 | -0.69142 | 73.15838 | 19 ft | 10 kts | 70° |
| 2026-04-26 19:00 | -0.69120 | 73.15853 | 19 ft | 0 kts | 12° |